createdAt,value
2022-08-18T00:00:29.589Z,17.70
2022-08-18T00:03:27.337Z,17.70
2022-08-18T00:06:01.834Z,17.60
2022-08-18T00:08:38.636Z,17.70
2022-08-18T00:11:07.246Z,17.60
2022-08-18T00:13:48.222Z,17.70
2022-08-18T00:16:16.456Z,17.70
2022-08-18T00:18:51.243Z,17.70
2022-08-18T00:21:21.546Z,17.80
2022-08-18T00:23:56.336Z,17.80
2022-08-18T00:26:25.214Z,17.80
2022-08-18T00:29:00.390Z,17.90
2022-08-18T00:31:29.694Z,17.90
2022-08-18T00:34:04.284Z,18.00
2022-08-18T00:36:34.834Z,18.00
2022-08-18T00:39:11.588Z,18.00
2022-08-18T00:41:40.370Z,18.00
2022-08-18T00:44:15.293Z,18.10
2022-08-18T00:46:46.745Z,18.00
2022-08-18T00:49:23.298Z,17.90
2022-08-18T00:51:53.602Z,17.90
2022-08-18T00:54:34.263Z,17.90
2022-08-18T00:57:06.006Z,17.90
2022-08-18T00:59:49.363Z,17.80
2022-08-18T01:02:21.493Z,17.90
2022-08-18T01:05:02.259Z,17.90
2022-08-18T01:07:37.736Z,17.80
2022-08-18T01:10:13.276Z,17.90
2022-08-18T01:12:47.825Z,17.80
2022-08-18T01:15:32.634Z,17.80
2022-08-18T01:18:20.141Z,17.80
2022-08-18T01:21:22.427Z,17.80
2022-08-18T01:23:54.701Z,17.90
2022-08-18T01:26:31.395Z,17.90
2022-08-18T01:29:11.858Z,17.90
2022-08-18T01:32:02.407Z,18.00
2022-08-18T01:34:30.963Z,18.00
2022-08-18T01:37:06.258Z,18.10
2022-08-18T01:41:21.348Z,18.10
2022-08-18T01:42:33.310Z,18.10
2022-08-18T01:45:04.033Z,18.10
2022-08-18T01:47:47.968Z,18.10
2022-08-18T01:50:18.228Z,18.10
2022-08-18T01:52:53.710Z,18.20
2022-08-18T01:55:25.115Z,18.20
2022-08-18T01:58:00.441Z,18.20
2022-08-18T02:00:29.352Z,18.30
2022-08-18T02:03:05.354Z,18.30
2022-08-18T02:05:37.277Z,18.30
2022-08-18T02:08:13.736Z,18.40
2022-08-18T02:10:45.564Z,18.40
2022-08-18T02:13:27.336Z,18.40
2022-08-18T02:15:55.672Z,18.50
2022-08-18T02:18:47.360Z,18.50
2022-08-18T02:21:18.893Z,18.40
2022-08-18T02:23:55.344Z,18.40
2022-08-18T02:26:29.593Z,18.40
2022-08-18T02:29:04.663Z,18.50
2022-08-18T02:31:32.945Z,18.50
2022-08-18T02:34:07.733Z,18.50
2022-08-18T02:36:36.360Z,18.50
2022-08-18T02:39:12.337Z,18.50
2022-08-18T02:41:42.138Z,18.60
2022-08-18T02:44:17.454Z,18.60
2022-08-18T02:46:45.630Z,18.60
2022-08-18T02:49:20.758Z,18.70
2022-08-18T02:51:49.618Z,18.70
2022-08-18T02:54:25.380Z,18.70
2022-08-18T02:56:57.306Z,18.70
2022-08-18T02:59:34.484Z,18.70
2022-08-18T03:02:02.712Z,18.70
2022-08-18T03:04:39.400Z,18.70
2022-08-18T03:07:09.426Z,18.80
2022-08-18T03:09:44.388Z,18.80
2022-08-18T03:12:34.504Z,18.80
2022-08-18T03:15:10.489Z,18.80
2022-08-18T03:17:39.089Z,18.80
2022-08-18T03:20:15.330Z,18.80
2022-08-18T03:22:44.129Z,18.80
2022-08-18T03:25:18.430Z,18.90
2022-08-18T03:27:48.014Z,18.80
2022-08-18T03:30:22.405Z,18.80
2022-08-18T03:32:51.043Z,18.70
2022-08-18T03:35:26.424Z,18.70
2022-08-18T03:37:55.887Z,18.70
2022-08-18T03:40:30.542Z,18.70
2022-08-18T03:43:02.086Z,18.70
2022-08-18T03:45:38.429Z,18.70
2022-08-18T03:48:06.945Z,18.70
2022-08-18T03:50:41.456Z,18.70
2022-08-18T03:53:11.500Z,18.70
2022-08-18T03:55:48.611Z,18.70
2022-08-18T03:58:18.306Z,18.70
2022-08-18T04:00:53.443Z,18.70
2022-08-18T04:03:21.763Z,18.60
2022-08-18T04:05:56.511Z,18.60
2022-08-18T04:08:25.058Z,18.60
2022-08-18T04:11:00.445Z,18.50
2022-08-18T04:13:50.545Z,18.40
2022-08-18T04:16:25.439Z,18.40
2022-08-18T04:18:53.705Z,18.50
2022-08-18T04:21:28.779Z,18.50
2022-08-18T04:23:59.919Z,18.50
2022-08-18T04:26:34.418Z,18.60
2022-08-18T04:29:04.691Z,18.50
2022-08-18T04:31:39.605Z,18.50
2022-08-18T04:34:08.506Z,18.50
2022-08-18T04:36:44.498Z,18.40
2022-08-18T04:39:14.574Z,18.50
2022-08-18T04:41:51.471Z,18.40
2022-08-18T04:44:22.321Z,18.50
2022-08-18T04:46:59.648Z,18.50
2022-08-18T04:49:28.114Z,18.60
2022-08-18T04:52:37.898Z,18.60
2022-08-18T04:55:15.654Z,18.50
2022-08-18T04:57:43.854Z,18.60
2022-08-18T05:00:20.524Z,18.60
2022-08-18T05:02:49.538Z,18.60
2022-08-18T05:05:24.522Z,18.50
2022-08-18T05:07:53.100Z,18.50
2022-08-18T05:10:28.466Z,18.50
2022-08-18T05:13:09.900Z,18.40
2022-08-18T05:16:07.355Z,18.30
2022-08-18T05:18:38.644Z,18.30
2022-08-18T05:21:13.566Z,18.30
2022-08-18T05:23:42.834Z,18.30
2022-08-18T05:26:21.856Z,18.30
2022-08-18T05:28:50.074Z,18.40
2022-08-18T05:31:36.558Z,18.40
2022-08-18T05:34:05.886Z,18.40
2022-08-18T05:36:54.498Z,18.40
2022-08-18T05:39:26.832Z,18.40
2022-08-18T05:42:08.553Z,18.40
2022-08-18T05:44:41.606Z,18.40
2022-08-18T05:47:20.560Z,18.50
2022-08-18T05:49:50.342Z,18.50
2022-08-18T05:52:28.562Z,18.60
2022-08-18T05:55:19.472Z,18.60
2022-08-18T05:57:58.583Z,18.70
2022-08-18T06:00:27.886Z,18.60
2022-08-18T06:03:08.746Z,18.60
2022-08-18T06:05:42.390Z,18.70
2022-08-18T06:08:18.949Z,18.70
2022-08-18T06:10:50.752Z,18.70
2022-08-18T06:13:32.719Z,18.70
2022-08-18T06:16:09.929Z,18.70
2022-08-18T06:18:54.572Z,18.70
2022-08-18T06:21:41.136Z,18.70
2022-08-18T06:24:26.690Z,18.70
2022-08-18T06:27:02.834Z,18.70
2022-08-18T06:29:58.615Z,18.80
2022-08-18T06:32:35.390Z,18.90
2022-08-18T06:35:25.615Z,18.90
2022-08-18T06:38:19.902Z,18.90
2022-08-18T06:40:55.600Z,19.00
2022-08-18T06:43:24.027Z,18.90
2022-08-18T06:45:59.705Z,18.90
2022-08-18T06:48:34.431Z,18.90
2022-08-18T06:51:12.591Z,18.90
2022-08-18T06:53:59.753Z,18.90
2022-08-18T06:56:42.607Z,19.00
2022-08-18T06:59:21.266Z,19.20
2022-08-18T07:01:59.621Z,19.30
2022-08-18T07:04:40.006Z,19.40
2022-08-18T07:07:27.658Z,19.50
2022-08-18T07:10:30.211Z,19.70
2022-08-18T07:13:15.667Z,19.70
2022-08-18T07:15:50.941Z,19.80
2022-08-18T07:18:32.835Z,19.90
2022-08-18T07:21:04.149Z,19.90
2022-08-18T07:23:53.809Z,20.00
2022-08-18T07:27:00.432Z,20.10
2022-08-18T07:29:35.985Z,19.90
2022-08-18T07:32:21.102Z,19.70
2022-08-18T07:35:04.972Z,19.60
2022-08-18T07:37:39.695Z,19.60
2022-08-18T07:40:27.666Z,19.70
2022-08-18T07:43:02.613Z,19.80
2022-08-18T07:45:43.787Z,20.00
2022-08-18T07:48:37.072Z,20.10
2022-08-18T07:51:20.706Z,20.30
2022-08-18T07:53:58.022Z,20.40
2022-08-18T07:56:45.628Z,20.60
2022-08-18T07:59:20.140Z,20.60
2022-08-18T08:02:00.693Z,20.70
2022-08-18T08:04:43.248Z,20.70
2022-08-18T08:07:25.530Z,20.80
2022-08-18T08:10:04.580Z,20.90
2022-08-18T08:12:49.677Z,21.10
2022-08-18T08:15:36.818Z,21.10
2022-08-18T08:18:20.079Z,21.10
2022-08-18T08:20:53.736Z,21.20
2022-08-18T08:23:35.830Z,21.20
2022-08-18T08:26:30.374Z,21.30
2022-08-18T08:29:16.716Z,21.40
2022-08-18T08:31:52.073Z,21.50
2022-08-18T08:34:33.706Z,21.50
2022-08-18T08:37:05.007Z,21.40
2022-08-18T08:39:47.163Z,21.40
2022-08-18T08:42:31.629Z,21.30
2022-08-18T08:45:14.920Z,21.40
2022-08-18T08:47:51.598Z,21.50
2022-08-18T08:50:30.724Z,21.60
2022-08-18T08:53:03.987Z,21.80
2022-08-18T08:55:43.825Z,22.00
2022-08-18T08:58:22.423Z,22.00
2022-08-18T09:01:01.669Z,21.80
2022-08-18T09:03:46.237Z,21.80
2022-08-18T09:06:38.840Z,21.80
2022-08-18T09:09:22.953Z,22.10
2022-08-18T09:12:25.753Z,22.30
2022-08-18T09:15:26.338Z,22.60
2022-08-18T09:18:22.814Z,22.80
2022-08-18T09:21:04.543Z,22.60
2022-08-18T09:23:41.877Z,22.30
2022-08-18T09:26:42.149Z,22.20
2022-08-18T09:29:29.777Z,22.20
2022-08-18T09:32:35.248Z,22.30
2022-08-18T09:35:52.009Z,22.40
2022-08-18T09:41:51.803Z,22.70
2022-08-18T09:45:04.113Z,23.10
2022-08-18T09:48:02.295Z,23.50
2022-08-18T09:51:03.769Z,24.10
2022-08-18T09:53:45.791Z,24.60
2022-08-18T09:56:28.692Z,24.70
2022-08-18T09:59:10.866Z,24.80
2022-08-18T10:01:42.158Z,24.80
2022-08-18T10:04:42.914Z,24.90
2022-08-18T10:07:41.972Z,25.10
2022-08-18T10:11:01.084Z,25.40
2022-08-18T10:13:29.707Z,25.10
2022-08-18T10:16:15.790Z,24.30
2022-08-18T10:18:58.436Z,23.70
2022-08-18T10:21:35.943Z,23.20
2022-08-18T10:27:22.294Z,22.90
2022-08-18T10:29:55.292Z,23.20
2022-08-18T10:33:01.493Z,23.60
2022-08-18T10:35:56.851Z,24.50
2022-08-18T10:38:55.813Z,25.40
2022-08-18T10:41:33.205Z,25.80
2022-08-18T10:44:28.334Z,25.80
2022-08-18T10:46:59.523Z,25.90
2022-08-18T10:49:38.846Z,26.00
2022-08-18T10:56:01.313Z,25.90
2022-08-18T10:59:00.136Z,26.20
2022-08-18T11:02:04.876Z,25.90
2022-08-18T11:04:38.778Z,25.10
2022-08-18T11:07:18.855Z,24.80
2022-08-18T11:09:57.061Z,24.80
2022-08-18T11:13:11.066Z,24.60
2022-08-18T11:15:59.068Z,24.50
2022-08-18T11:18:43.941Z,24.90
2022-08-18T11:21:37.626Z,25.20
2022-08-18T11:24:25.125Z,25.90
2022-08-18T11:26:56.229Z,26.20
2022-08-18T11:29:39.190Z,26.60
2022-08-18T11:32:14.019Z,27.30
2022-08-18T11:34:57.921Z,27.40
2022-08-18T11:37:48.762Z,27.40
2022-08-18T11:43:41.355Z,27.00
2022-08-18T11:46:28.005Z,26.50
2022-08-18T11:52:05.107Z,25.80
2022-08-18T11:54:39.708Z,25.40
2022-08-18T11:58:01.042Z,25.10
2022-08-18T12:00:57.234Z,25.00
2022-08-18T12:03:45.020Z,25.00
2022-08-18T12:12:22.705Z,26.20
2022-08-18T12:15:10.437Z,26.50
2022-08-18T12:17:52.553Z,26.60
2022-08-18T12:20:28.045Z,26.50
2022-08-18T12:22:59.823Z,26.90
2022-08-18T12:25:35.029Z,26.90
2022-08-18T12:28:10.902Z,27.30
2022-08-18T12:30:45.982Z,27.40
2022-08-18T12:33:14.861Z,27.40
2022-08-18T12:35:51.829Z,27.30
2022-08-18T12:38:23.491Z,26.80
2022-08-18T12:40:58.935Z,26.60
2022-08-18T12:43:27.874Z,26.40
2022-08-18T12:46:08.444Z,26.20
2022-08-18T12:48:41.249Z,25.90
2022-08-18T12:51:18.311Z,25.70
2022-08-18T12:53:58.121Z,25.70
2022-08-18T12:56:37.094Z,26.00
2022-08-18T12:59:07.621Z,26.00
2022-08-18T13:01:45.109Z,26.00
2022-08-18T13:04:15.558Z,25.90
2022-08-18T13:07:00.894Z,26.00
2022-08-18T13:09:34.168Z,25.90
2022-08-18T13:12:19.182Z,26.00
2022-08-18T13:15:01.266Z,26.20
2022-08-18T13:17:36.009Z,26.30
2022-08-18T13:20:14.522Z,26.40
2022-08-18T13:22:50.301Z,26.50
2022-08-18T13:25:32.495Z,26.60
2022-08-18T13:28:14.048Z,26.80
2022-08-18T13:30:42.723Z,27.00
2022-08-18T13:33:35.121Z,27.60
2022-08-18T13:36:05.726Z,28.20
2022-08-18T13:38:40.313Z,27.90
2022-08-18T13:41:15.799Z,28.00
2022-08-18T13:43:53.380Z,28.40
2022-08-18T13:46:29.824Z,28.70
2022-08-18T13:49:09.034Z,28.90
2022-08-18T13:51:37.309Z,29.00
2022-08-18T13:54:29.569Z,29.20
2022-08-18T13:57:01.192Z,29.30
2022-08-18T13:59:46.785Z,29.40
2022-08-18T14:02:15.718Z,29.40
2022-08-18T14:04:53.141Z,28.90
2022-08-18T14:07:27.370Z,28.50
2022-08-18T14:10:04.513Z,28.50
2022-08-18T14:12:37.418Z,28.80
2022-08-18T14:15:23.060Z,28.40
2022-08-18T14:17:59.450Z,28.30
2022-08-18T14:20:52.148Z,27.80
2022-08-18T14:23:38.232Z,27.90
2022-08-18T14:26:36.363Z,28.20
2022-08-18T14:29:06.325Z,28.40
2022-08-18T14:31:46.170Z,28.20
2022-08-18T14:34:15.886Z,28.10
2022-08-18T14:36:57.079Z,27.80
2022-08-18T14:39:25.884Z,28.10
2022-08-18T14:42:02.925Z,28.00
2022-08-18T14:44:32.979Z,27.80
2022-08-18T14:47:10.749Z,27.70
2022-08-18T14:49:42.923Z,27.80
2022-08-18T14:52:23.148Z,27.60
2022-08-18T14:54:52.341Z,27.60
2022-08-18T14:57:30.065Z,27.70
2022-08-18T15:00:00.067Z,27.50
2022-08-18T15:02:35.064Z,27.40
2022-08-18T15:05:19.401Z,27.40
2022-08-18T15:07:59.186Z,27.60
2022-08-18T15:10:28.081Z,27.90
2022-08-18T15:13:04.167Z,28.10
2022-08-18T15:15:51.903Z,28.20
2022-08-18T15:18:27.020Z,28.20
2022-08-18T15:21:34.914Z,28.00
2022-08-18T15:24:26.172Z,28.00
2022-08-18T15:26:56.691Z,27.80
2022-08-18T15:29:35.079Z,27.40
2022-08-18T15:32:10.582Z,27.30
2022-08-18T15:34:51.027Z,27.40
2022-08-18T15:37:24.102Z,27.30
2022-08-18T15:40:09.218Z,27.20
2022-08-18T15:42:52.557Z,27.10
2022-08-18T15:45:36.121Z,27.10
2022-08-18T15:48:13.219Z,27.20
2022-08-18T15:50:51.141Z,27.30
2022-08-18T15:53:21.359Z,27.30
2022-08-18T15:55:57.280Z,27.30
2022-08-18T15:58:26.876Z,27.20
2022-08-18T16:01:29.862Z,27.10
2022-08-18T16:04:02.102Z,27.00
2022-08-18T16:06:32.391Z,26.90
2022-08-18T16:09:01.597Z,26.90
2022-08-18T16:11:37.123Z,26.80
2022-08-18T16:14:19.155Z,26.80
2022-08-18T16:16:55.240Z,26.80
2022-08-18T16:19:31.625Z,26.80
2022-08-18T16:22:00.255Z,26.80
2022-08-18T16:24:35.229Z,26.80
2022-08-18T16:27:06.585Z,26.90
2022-08-18T16:29:41.249Z,26.90
2022-08-18T16:32:16.199Z,27.00
2022-08-18T16:34:53.153Z,27.00
2022-08-18T16:37:21.982Z,27.00
2022-08-18T16:39:57.373Z,26.90
2022-08-18T16:42:25.679Z,26.80
2022-08-18T16:45:00.223Z,26.70
2022-08-18T16:47:28.409Z,26.60
2022-08-18T16:50:05.281Z,26.50
2022-08-18T16:52:35.952Z,26.40
2022-08-18T16:55:13.245Z,26.40
2022-08-18T16:57:59.940Z,26.50
2022-08-18T17:00:55.118Z,26.40
2022-08-18T17:03:41.566Z,26.10
2022-08-18T17:06:20.352Z,26.00
2022-08-18T17:08:48.965Z,25.90
2022-08-18T17:11:26.309Z,25.80
2022-08-18T17:14:03.525Z,25.80
2022-08-18T17:16:46.533Z,25.80
2022-08-18T17:19:14.762Z,25.70
2022-08-18T17:21:51.305Z,25.70
2022-08-18T17:24:30.443Z,25.70
2022-08-18T17:27:26.462Z,25.60
2022-08-18T17:30:02.663Z,25.60
2022-08-18T17:32:45.434Z,25.40
2022-08-18T17:35:28.997Z,25.30
2022-08-18T17:38:11.283Z,25.20
2022-08-18T17:40:44.990Z,25.30
2022-08-18T17:43:24.547Z,25.20
2022-08-18T17:45:57.469Z,25.20
2022-08-18T17:48:36.176Z,25.10
2022-08-18T17:51:27.291Z,25.10
2022-08-18T17:54:06.373Z,25.00
2022-08-18T17:56:40.388Z,25.00
2022-08-18T17:59:42.898Z,25.00
2022-08-18T18:02:28.694Z,24.90
2022-08-18T18:05:06.231Z,24.90
2022-08-18T18:07:38.864Z,24.80
2022-08-18T18:10:19.257Z,24.70
2022-08-18T18:12:47.814Z,24.70
2022-08-18T18:15:37.593Z,24.60
2022-08-18T18:18:22.884Z,24.60
2022-08-18T18:21:13.625Z,24.50
2022-08-18T18:23:43.700Z,24.40
2022-08-18T18:26:36.315Z,24.40
2022-08-18T18:29:14.681Z,24.30
2022-08-18T18:31:55.549Z,24.20
2022-08-18T18:34:31.307Z,24.10
2022-08-18T18:37:07.308Z,24.10
2022-08-18T18:39:37.778Z,24.00
2022-08-18T18:42:25.400Z,23.90
2022-08-18T18:44:56.845Z,23.80
2022-08-18T18:48:01.363Z,23.80
2022-08-18T18:50:38.010Z,23.70
2022-08-18T18:53:38.338Z,23.60
2022-08-18T18:56:14.399Z,23.50
2022-08-18T18:59:02.320Z,23.50
2022-08-18T19:01:41.194Z,23.40
2022-08-18T19:04:23.295Z,23.40
2022-08-18T19:07:00.285Z,23.30
2022-08-18T19:09:48.509Z,23.20
2022-08-18T19:12:23.814Z,23.20
2022-08-18T19:15:03.455Z,23.20
2022-08-18T19:17:43.591Z,23.10
2022-08-18T19:20:23.463Z,23.10
2022-08-18T19:22:55.773Z,23.00
2022-08-18T19:25:34.433Z,23.00
2022-08-18T19:28:08.172Z,22.90
2022-08-18T19:30:49.482Z,22.80
2022-08-18T19:33:25.735Z,22.80
2022-08-18T19:36:05.348Z,22.80
2022-08-18T19:38:38.379Z,22.70
2022-08-18T19:41:22.674Z,22.70
2022-08-18T19:43:57.821Z,22.60
2022-08-18T19:46:43.390Z,22.50
2022-08-18T19:49:19.120Z,22.50
2022-08-18T19:51:57.531Z,22.40
2022-08-18T19:54:41.164Z,22.30
2022-08-18T19:57:29.413Z,22.30
2022-08-18T20:00:21.658Z,22.20
2022-08-18T20:03:21.383Z,22.20
2022-08-18T20:06:33.620Z,22.10
2022-08-18T20:09:30.475Z,22.00
2022-08-18T20:12:08.663Z,22.00
2022-08-18T20:14:46.388Z,21.90
2022-08-18T20:17:23.767Z,21.80
2022-08-18T20:20:31.370Z,21.80
2022-08-18T20:23:01.462Z,21.90
2022-08-18T20:25:48.379Z,21.80
2022-08-18T20:28:42.319Z,21.80
2022-08-18T20:31:23.419Z,21.70
2022-08-18T20:34:14.143Z,21.70
2022-08-18T20:36:53.447Z,21.70
2022-08-18T20:39:45.104Z,21.60
2022-08-18T20:42:56.069Z,21.60
2022-08-18T20:45:30.460Z,21.60
2022-08-18T20:48:24.436Z,21.50
2022-08-18T20:51:01.903Z,21.50
2022-08-18T20:53:59.539Z,21.40
2022-08-18T20:56:43.905Z,21.40
2022-08-18T20:59:24.831Z,21.30
2022-08-18T21:01:58.913Z,21.30
2022-08-18T21:04:44.763Z,21.30
2022-08-18T21:07:19.265Z,21.30
2022-08-18T21:10:21.585Z,21.20
2022-08-18T21:12:53.716Z,21.20
2022-08-18T21:15:30.418Z,21.20
2022-08-18T21:18:08.014Z,21.10
2022-08-18T21:20:43.471Z,21.10
2022-08-18T21:23:15.088Z,21.10
2022-08-18T21:26:02.583Z,21.00
2022-08-18T21:28:39.223Z,20.90
2022-08-18T21:31:44.370Z,20.90
2022-08-18T21:34:18.477Z,20.80
2022-08-18T21:36:58.456Z,20.80
2022-08-18T21:39:27.108Z,20.80
2022-08-18T21:42:06.806Z,20.80
2022-08-18T21:44:41.723Z,20.70
2022-08-18T21:47:26.226Z,20.70
2022-08-18T21:50:19.566Z,20.60
2022-08-18T21:52:55.114Z,20.50
2022-08-18T21:55:36.580Z,20.40
2022-08-18T21:58:19.680Z,20.30
2022-08-18T22:01:20.644Z,20.30
2022-08-18T22:03:55.196Z,20.20
2022-08-18T22:06:43.822Z,20.20
2022-08-18T22:09:36.547Z,20.10
2022-08-18T22:12:46.568Z,20.10
2022-08-18T22:15:44.099Z,20.10
2022-08-18T22:18:42.612Z,20.10
2022-08-18T22:21:32.755Z,20.10
2022-08-18T22:24:25.620Z,20.00
2022-08-18T22:27:08.169Z,20.00
2022-08-18T22:29:51.636Z,19.80
2022-08-18T22:32:22.970Z,19.80
2022-08-18T22:34:59.431Z,19.70
2022-08-18T22:37:31.505Z,19.70
2022-08-18T22:40:09.701Z,19.60
2022-08-18T22:42:38.544Z,19.60
2022-08-18T22:45:16.837Z,19.60
2022-08-18T22:47:46.791Z,19.50
2022-08-18T22:50:21.841Z,19.50
2022-08-18T22:52:50.777Z,19.40
2022-08-18T22:55:26.512Z,19.40
2022-08-18T22:57:57.275Z,19.40
2022-08-18T23:00:32.477Z,19.30
2022-08-18T23:03:05.239Z,19.40
2022-08-18T23:05:40.527Z,19.30
2022-08-18T23:08:08.931Z,19.30
2022-08-18T23:10:43.565Z,19.20
2022-08-18T23:13:11.874Z,19.30
2022-08-18T23:16:30.489Z,19.20
2022-08-18T23:18:52.768Z,19.20
2022-08-18T23:21:35.432Z,19.20
2022-08-18T23:24:05.446Z,19.10
2022-08-18T23:26:40.898Z,19.10
2022-08-18T23:29:18.568Z,19.10
2022-08-18T23:31:48.518Z,19.10
2022-08-18T23:34:26.568Z,19.10
2022-08-18T23:36:57.550Z,19.00
2022-08-18T23:39:33.739Z,19.00
2022-08-18T23:42:02.528Z,19.00
2022-08-18T23:44:37.689Z,19.00
2022-08-18T23:47:06.319Z,18.90
2022-08-18T23:49:42.699Z,19.00
2022-08-18T23:52:11.437Z,18.90
2022-08-18T23:54:46.587Z,18.90
2022-08-18T23:57:15.456Z,18.90
2022-08-18T23:59:50.516Z,18.90
